Time;durP1;ratioP1;P1;durP2;ratioP2;P2;SDS_P1;SDS_P2;PMS_P1;PMS_P2;Temp;Humidity;BMP_temperature;BMP_pressure;BME280_temperature;BME280_humidity;BME280_pressure;Samples;Min_cycle;Max_cycle;Signal;HPM_P1;HPM_P2
2022/10/09 00:01:12;;;;;;;1.02;0.90;;;19.80;62.90;;;;;;5106311;27;43891;-58
2022/10/09 00:03:41;;;;;;;2.30;1.00;;;19.80;62.90;;;;;;5105686;27;43424;-58
2022/10/09 00:06:12;;;;;;;1.23;0.95;;;19.80;63.00;;;;;;5104048;27;44028;-58
2022/10/09 00:08:42;;;;;;;1.50;1.30;;;19.80;63.60;;;;;;5107374;27;44857;-58
2022/10/09 00:11:13;;;;;;;2.90;1.20;;;19.80;62.90;;;;;;5107388;27;43508;-58
2022/10/09 00:13:40;;;;;;;;;;;19.80;62.90;;;;;;5106905;27;43532;-58
2022/10/09 00:16:10;;;;;;;1.15;0.90;;;19.80;63.00;;;;;;5107981;27;43584;-58
2022/10/09 00:18:38;;;;;;;1.77;1.15;;;19.70;63.10;;;;;;5109273;27;45454;-58
2022/10/09 00:21:13;;;;;;;1.00;0.90;;;19.70;63.00;;;;;;5106509;27;43673;-58
2022/10/09 00:23:41;;;;;;;1.63;0.95;;;19.80;62.90;;;;;;5106897;27;43385;-58
2022/10/09 00:26:10;;;;;;;1.20;0.90;;;19.80;62.90;;;;;;5109256;27;43581;-58
2022/10/09 00:28:38;;;;;;;1.65;1.08;;;19.80;63.10;;;;;;5107052;27;44787;-59
2022/10/09 00:31:07;;;;;;;1.20;0.82;;;19.80;63.00;;;;;;5107064;27;43721;-58
2022/10/09 00:33:35;;;;;;;1.33;0.90;;;19.70;63.00;;;;;;5106360;27;43502;-58
2022/10/09 00:36:08;;;;;;;1.80;1.00;;;19.70;63.00;;;;;;5109093;27;44174;-58
2022/10/09 00:38:37;;;;;;;1.80;1.00;;;19.70;63.10;;;;;;5102662;27;44068;-58
2022/10/09 00:41:05;;;;;;;1.85;0.98;;;19.70;63.00;;;;;;5107163;27;43494;-58
2022/10/09 00:43:59;;;;;;;2.22;1.10;;;19.70;63.00;;;;;;5108641;27;43490;-58
2022/10/09 00:46:35;;;;;;;1.75;1.00;;;19.70;63.10;;;;;;5096539;27;43664;-58
2022/10/09 00:49:28;;;;;;;1.60;1.27;;;19.70;63.30;;;;;;5106241;27;45057;-58
2022/10/09 00:51:59;;;;;;;1.45;1.17;;;19.70;63.10;;;;;;5094279;27;43677;-58
2022/10/09 00:54:30;;;;;;;1.05;0.98;;;19.70;63.10;;;;;;5108452;27;43557;-58
2022/10/09 00:56:58;;;;;;;;;;;19.70;63.10;;;;;;5092040;27;43478;-58
2022/10/09 00:59:26;;;;;;;2.17;0.75;;;19.60;63.00;;;;;;5107673;27;44033;-58
2022/10/09 01:01:53;;;;;;;1.05;0.90;;;19.60;63.10;;;;;;5108408;27;44142;-58
2022/10/09 01:04:21;;;;;;;1.20;0.85;;;19.60;63.00;;;;;;5106011;27;43423;-58
2022/10/09 01:07:28;;;;;;;0.70;0.70;;;19.60;63.10;;;;;;5086610;27;43503;-58
2022/10/09 01:10:09;;;;;;;1.30;0.95;;;19.60;63.20;;;;;;5102846;27;43924;-58
2022/10/09 01:13:09;;;;;;;2.05;0.80;;;19.60;63.10;;;;;;5107148;27;43364;-58
2022/10/09 01:16:03;;;;;;;1.83;1.00;;;19.60;63.10;;;;;;5085839;27;43462;-59
2022/10/09 01:18:38;;;;;;;1.67;0.90;;;19.60;63.00;;;;;;5113557;27;43391;-58
2022/10/09 01:21:18;;;;;;;2.05;1.10;;;19.60;63.50;;;;;;5110247;27;44053;-58
2022/10/09 01:24:04;;;;;;;1.25;1.00;;;19.60;63.10;;;;;;5109251;27;44341;-59
2022/10/09 01:27:01;;;;;;;1.70;1.00;;;19.50;63.10;;;;;;5109290;27;43582;-58
2022/10/09 01:29:37;;;;;;;1.58;0.93;;;19.50;63.10;;;;;;5109532;27;43504;-59
2022/10/09 01:32:06;;;;;;;1.30;1.00;;;19.50;63.10;;;;;;5109599;27;44044;-58
2022/10/09 01:34:36;;;;;;;1.25;0.73;;;19.50;63.10;;;;;;5109145;27;43974;-58
2022/10/09 01:37:04;;;;;;;1.25;0.70;;;19.50;62.90;;;;;;5112225;27;43436;-58
2022/10/09 01:39:34;;;;;;;1.73;0.85;;;19.50;63.10;;;;;;5109198;27;43478;-58
2022/10/09 01:42:02;;;;;;;2.42;1.25;;;19.50;63.10;;;;;;5111444;27;44246;-58
2022/10/09 01:44:31;;;;;;;1.38;0.85;;;19.50;63.10;;;;;;5107762;27;43980;-58
2022/10/09 01:46:59;;;;;;;1.35;0.73;;;19.50;63.20;;;;;;5110007;27;43417;-58
2022/10/09 01:49:39;;;;;;;1.60;1.02;;;19.50;63.00;;;;;;5109417;27;43654;-58
2022/10/09 01:52:25;;;;;;;1.58;0.95;;;19.50;63.00;;;;;;5108660;27;43606;-58
2022/10/09 01:55:02;;;;;;;2.05;1.25;;;19.50;63.10;;;;;;5108245;27;43456;-58
2022/10/09 01:57:49;;;;;;;2.03;1.10;;;19.50;63.20;;;;;;5108753;27;43397;-59
2022/10/09 02:00:17;;;;;;;1.95;0.90;;;19.50;63.10;;;;;;5108779;27;43534;-58
2022/10/09 02:02:45;;;;;;;2.15;1.00;;;19.50;63.00;;;;;;5119222;27;44784;-58
2022/10/09 02:05:21;;;;;;;1.10;0.95;;;19.50;63.00;;;;;;5120456;27;43972;-58
2022/10/09 02:07:49;;;;;;;1.33;0.90;;;19.50;63.10;;;;;;5109269;27;43570;-58
2022/10/09 02:10:19;;;;;;;1.50;0.85;;;19.40;63.10;;;;;;5110451;27;43601;-58
2022/10/09 02:12:52;;;;;;;1.30;0.97;;;19.40;63.00;;;;;;5109541;27;44410;-58
2022/10/09 02:15:24;;;;;;;0.82;0.70;;;19.40;63.00;;;;;;5108485;27;43420;-58
2022/10/09 02:17:54;;;;;;;1.00;0.85;;;19.40;63.00;;;;;;5106036;27;43430;-58
2022/10/09 02:20:31;;;;;;;1.67;1.17;;;19.40;63.10;;;;;;5112181;27;43620;-58
2022/10/09 02:23:03;;;;;;;1.23;0.95;;;19.40;63.10;;;;;;5116956;27;44017;-58
2022/10/09 02:25:31;;;;;;;1.15;0.80;;;19.40;63.00;;;;;;5106618;27;43448;-58
2022/10/09 02:28:00;;;;;;;1.27;0.98;;;19.40;63.10;;;;;;5110257;27;43465;-58
2022/10/09 02:30:38;;;;;;;0.70;0.70;;;19.40;63.00;;;;;;5110765;27;43521;-58
2022/10/09 02:33:05;;;;;;;1.88;0.85;;;19.40;63.00;;;;;;5108841;27;43904;-58
2022/10/09 02:35:33;;;;;;;1.00;0.70;;;19.40;62.90;;;;;;5118503;27;43983;-58
2022/10/09 02:38:00;;;;;;;1.38;0.82;;;19.40;63.00;;;;;;5109530;27;43386;-58
2022/10/09 02:40:27;;;;;;;1.35;0.85;;;19.40;62.90;;;;;;5108518;27;43585;-58
2022/10/09 02:42:55;;;;;;;1.23;0.80;;;19.40;62.90;;;;;;5112279;27;43871;-59
2022/10/09 02:45:22;;;;;;;0.80;0.80;;;19.40;62.90;;;;;;5107935;27;43549;-58
2022/10/09 02:47:50;;;;;;;1.27;0.90;;;19.40;62.90;;;;;;5111112;27;43439;-58
2022/10/09 02:50:17;;;;;;;1.67;0.85;;;19.40;62.90;;;;;;5107428;27;43645;-58
2022/10/09 02:52:44;;;;;;;1.27;0.80;;;19.40;62.90;;;;;;5108114;27;44863;-58
2022/10/09 02:55:12;;;;;;;0.77;0.77;;;19.30;63.00;;;;;;5097721;27;43480;-58
2022/10/09 02:57:40;;;;;;;1.63;0.98;;;19.40;62.90;;;;;;5112109;27;43400;-58
2022/10/09 03:00:08;;;;;;;1.02;0.70;;;19.40;62.90;;;;;;5109130;27;43576;-59
2022/10/09 03:02:35;;;;;;;1.15;0.95;;;19.30;62.80;;;;;;5107337;27;44775;-58
2022/10/09 03:05:03;;;;;;;1.63;1.02;;;19.30;62.90;;;;;;5107871;27;43449;-58
2022/10/09 03:07:30;;;;;;;1.15;0.77;;;19.30;62.80;;;;;;5110716;27;43385;-58
2022/10/09 03:09:58;;;;;;;1.20;0.77;;;19.30;62.80;;;;;;5107918;27;43648;-58
2022/10/09 03:12:25;;;;;;;0.80;0.80;;;19.30;62.80;;;;;;5089489;27;44052;-59
2022/10/09 03:14:53;;;;;;;1.50;0.90;;;19.30;62.80;;;;;;5107676;27;43489;-58
2022/10/09 03:17:20;;;;;;;1.10;0.98;;;19.30;62.90;;;;;;5110669;27;43404;-58
2022/10/09 03:19:47;;;;;;;0.70;0.68;;;19.30;62.90;;;;;;5112656;27;43640;-58
2022/10/09 03:22:15;;;;;;;1.13;0.82;;;19.30;62.90;;;;;;5107332;27;44792;-58
2022/10/09 03:24:42;;;;;;;0.82;0.82;;;19.30;62.80;;;;;;5088552;27;43431;-59
2022/10/09 03:27:10;;;;;;;1.40;1.10;;;19.30;62.80;;;;;;5110904;27;43485;-58
2022/10/09 03:29:37;;;;;;;1.02;0.90;;;19.30;62.90;;;;;;5107308;27;43668;-58
2022/10/09 03:32:04;;;;;;;1.35;1.17;;;19.20;62.80;;;;;;5108151;27;44066;-58
2022/10/09 03:34:32;;;;;;;1.15;0.90;;;19.20;62.70;;;;;;5107249;27;43482;-58
2022/10/09 03:36:59;;;;;;;1.73;0.80;;;19.30;62.80;;;;;;5109974;27;43415;-58
2022/10/09 03:39:27;;;;;;;1.45;1.05;;;19.30;62.80;;;;;;5108090;27;43636;-58
2022/10/09 03:41:54;;;;;;;0.80;0.80;;;19.20;62.70;;;;;;5107185;27;43890;-58
2022/10/09 03:44:21;;;;;;;1.25;0.80;;;19.20;62.70;;;;;;5106233;27;44594;-58
2022/10/09 03:46:49;;;;;;;0.73;0.73;;;19.20;62.80;;;;;;5103426;27;43418;-58
2022/10/09 03:49:16;;;;;;;0.90;0.63;;;19.20;62.70;;;;;;5103378;27;43690;-58
2022/10/09 03:51:44;;;;;;;0.75;0.73;;;19.20;62.70;;;;;;5098652;27;44080;-58
2022/10/09 03:54:11;;;;;;;1.45;0.93;;;19.20;62.70;;;;;;5103461;27;44935;-58
2022/10/09 03:56:38;;;;;;;1.52;0.90;;;19.20;62.80;;;;;;5099523;27;43491;-58
2022/10/09 03:59:08;;;;;;;0.80;0.80;;;19.20;62.70;;;;;;5084936;27;43470;-58
2022/10/09 04:01:35;;;;;;;1.13;0.93;;;19.20;62.80;;;;;;5102736;27;44074;-58
2022/10/09 04:04:03;;;;;;;0.93;0.90;;;19.20;62.80;;;;;;5097826;27;43439;-58
2022/10/09 04:06:30;;;;;;;0.80;0.80;;;19.20;62.70;;;;;;5101459;27;43380;-58
2022/10/09 04:08:58;;;;;;;1.00;0.82;;;19.20;62.70;;;;;;5103371;27;43552;-58
2022/10/09 04:11:25;;;;;;;1.33;0.95;;;19.20;62.70;;;;;;5102354;27;44914;-58
2022/10/09 04:13:52;;;;;;;0.80;0.80;;;19.20;62.70;;;;;;5084145;27;43950;-58
2022/10/09 04:16:20;;;;;;;1.00;0.80;;;19.10;62.70;;;;;;5102931;27;43369;-58
2022/10/09 04:18:48;;;;;;;1.05;0.93;;;19.10;62.70;;;;;;5082828;27;43581;-58
2022/10/09 04:21:15;;;;;;;1.63;0.98;;;19.10;62.70;;;;;;5102916;27;45269;-58
2022/10/09 04:23:43;;;;;;;1.50;0.90;;;19.10;62.70;;;;;;5102884;27;44011;-58
2022/10/09 04:26:11;;;;;;;1.13;0.80;;;19.10;62.70;;;;;;5102192;27;43469;-58
2022/10/09 04:28:39;;;;;;;1.60;1.08;;;19.10;62.80;;;;;;5101708;27;43564;-58
2022/10/09 04:31:07;;;;;;;1.58;0.90;;;19.10;62.80;;;;;;5103095;27;44028;-58
2022/10/09 04:33:34;;;;;;;1.35;0.98;;;19.10;62.70;;;;;;5102096;27;43962;-58
2022/10/09 04:36:02;;;;;;;0.73;0.73;;;19.10;62.70;;;;;;5102675;27;43389;-59
2022/10/09 04:38:30;;;;;;;1.30;0.68;;;19.10;62.70;;;;;;5102203;27;43555;-58
2022/10/09 04:41:00;;;;;;;0.80;0.80;;;19.10;62.70;;;;;;5101119;27;44224;-58
2022/10/09 04:43:28;;;;;;;1.40;0.88;;;19.10;62.70;;;;;;5100762;27;43425;-58
2022/10/09 04:45:56;;;;;;;1.30;0.77;;;19.10;62.70;;;;;;5083743;27;43520;-58
2022/10/09 04:48:24;;;;;;;1.63;0.77;;;19.10;62.80;;;;;;5117537;27;43581;-58
2022/10/09 04:50:51;;;;;;;1.58;0.93;;;19.00;62.70;;;;;;5109840;27;45016;-58
2022/10/09 04:53:19;;;;;;;1.23;0.98;;;19.10;62.80;;;;;;5110096;27;43510;-58
2022/10/09 04:55:46;;;;;;;1.00;0.90;;;19.00;62.80;;;;;;5098137;27;43580;-58
2022/10/09 04:58:13;;;;;;;1.17;1.00;;;19.00;62.70;;;;;;5110788;27;43430;-58
2022/10/09 05:00:43;;;;;;;1.02;0.95;;;19.00;62.80;;;;;;5109735;27;44998;-58
2022/10/09 05:03:11;;;;;;;0.90;0.70;;;19.00;62.80;;;;;;5117256;27;43466;-58
2022/10/09 05:05:39;;;;;;;1.13;0.90;;;19.00;62.80;;;;;;5114698;27;43416;-58
2022/10/09 05:08:06;;;;;;;1.15;1.02;;;19.00;62.80;;;;;;5120038;27;43557;-58
2022/10/09 05:10:33;;;;;;;1.10;1.02;;;19.00;62.80;;;;;;5116925;27;43584;-58
2022/10/09 05:13:01;;;;;;;0.93;0.88;;;19.00;62.90;;;;;;5123384;27;43436;-58
2022/10/09 05:15:29;;;;;;;1.10;0.90;;;19.00;62.90;;;;;;5124779;27;43463;-59
2022/10/09 05:17:56;;;;;;;1.33;0.90;;;19.00;62.90;;;;;;5111298;27;43557;-58
2022/10/09 05:20:24;;;;;;;1.05;0.88;;;18.90;62.80;;;;;;5122216;27;43921;-58
2022/10/09 05:22:51;;;;;;;2.05;1.00;;;18.90;62.80;;;;;;5119502;27;43413;-58
2022/10/09 05:25:21;;;;;;;1.27;1.10;;;18.90;62.90;;;;;;5112378;27;43373;-58
2022/10/09 05:27:51;;;;;;;1.50;0.80;;;19.00;62.90;;;;;;5109047;27;43459;-58
2022/10/09 05:30:19;;;;;;;1.17;0.98;;;18.90;62.90;;;;;;5119484;27;44035;-58
2022/10/09 05:32:46;;;;;;;0.70;0.70;;;19.00;62.90;;;;;;5123514;27;43490;-58
2022/10/09 05:35:14;;;;;;;2.17;0.90;;;18.90;62.90;;;;;;5112739;27;43454;-58
2022/10/09 05:37:44;;;;;;;1.15;0.82;;;18.90;62.80;;;;;;5112685;27;43504;-58
2022/10/09 05:40:11;;;;;;;1.55;0.93;;;18.90;62.90;;;;;;5122137;27;44786;-58
2022/10/09 05:42:39;;;;;;;1.67;0.98;;;18.90;62.90;;;;;;5089900;27;46490;-59
2022/10/09 05:45:07;;;;;;;1.42;1.00;;;18.90;62.90;;;;;;5112072;27;43386;-58
2022/10/09 05:47:34;;;;;;;0.70;0.60;;;18.90;62.90;;;;;;5113176;27;43699;-58
2022/10/09 05:50:02;;;;;;;1.27;1.00;;;18.90;63.00;;;;;;5116347;27;44997;-58
2022/10/09 05:52:29;;;;;;;0.95;0.73;;;18.90;62.90;;;;;;5125098;27;43716;-58
2022/10/09 05:54:57;;;;;;;1.02;0.90;;;18.90;63.00;;;;;;5109406;27;43510;-58
2022/10/09 05:57:25;;;;;;;0.90;0.90;;;18.90;63.10;;;;;;5113107;27;43515;-58
2022/10/09 05:59:52;;;;;;;0.80;0.73;;;18.90;63.10;;;;;;5103531;27;44728;-58
2022/10/09 06:02:19;;;;;;;0.85;0.85;;;18.90;63.00;;;;;;5112884;27;43449;-58
2022/10/09 06:04:47;;;;;;;0.90;0.82;;;18.90;63.10;;;;;;5110371;27;43451;-58
2022/10/09 06:07:14;;;;;;;1.05;0.80;;;18.90;63.10;;;;;;5111993;27;43417;-57
2022/10/09 06:09:42;;;;;;;1.02;0.95;;;18.80;63.00;;;;;;5119865;27;44293;-58
2022/10/09 06:12:09;;;;;;;1.15;0.80;;;18.80;63.10;;;;;;5122281;27;43527;-58
2022/10/09 06:14:37;;;;;;;0.80;0.80;;;18.80;63.00;;;;;;5111620;27;43424;-58
2022/10/09 06:17:04;;;;;;;0.85;0.75;;;18.80;63.10;;;;;;5112340;27;43910;-58
2022/10/09 06:19:31;;;;;;;0.90;0.90;;;18.80;63.10;;;;;;5120907;27;44637;-58
2022/10/09 06:21:59;;;;;;;0.80;0.80;;;18.80;63.10;;;;;;5119339;27;43457;-58
2022/10/09 06:24:26;;;;;;;0.82;0.80;;;18.80;63.20;;;;;;5112221;27;43473;-58
2022/10/09 06:26:56;;;;;;;0.93;0.85;;;18.80;63.20;;;;;;5114243;27;43580;-58
2022/10/09 06:29:24;;;;;;;1.35;0.82;;;18.80;63.20;;;;;;5115781;27;43812;-57
2022/10/09 06:31:52;;;;;;;1.08;0.82;;;18.70;63.10;;;;;;5118299;27;43426;-58
2022/10/09 06:34:19;;;;;;;0.90;0.90;;;18.70;63.10;;;;;;5116852;27;43462;-58
2022/10/09 06:36:47;;;;;;;0.90;0.90;;;18.80;63.30;;;;;;5115915;27;43513;-57
2022/10/09 06:39:15;;;;;;;1.05;0.90;;;18.80;63.20;;;;;;5098004;27;44774;-58
2022/10/09 06:41:42;;;;;;;1.00;0.88;;;18.80;63.10;;;;;;5116016;27;43515;-58
2022/10/09 06:44:22;;;;;;;1.27;0.88;;;18.70;63.10;;;;;;5099493;27;43395;-58
2022/10/09 06:46:50;;;;;;;1.35;1.05;;;18.70;63.20;;;;;;5120540;27;43479;-58
2022/10/09 06:49:17;;;;;;;1.13;0.90;;;18.70;63.20;;;;;;5116272;27;43911;-58
2022/10/09 06:51:45;;;;;;;0.75;0.75;;;18.70;63.20;;;;;;5118782;27;43821;-58
2022/10/09 06:54:15;;;;;;;1.20;1.10;;;18.70;63.10;;;;;;5096972;27;43429;-58
2022/10/09 06:56:43;;;;;;;0.80;0.75;;;18.80;63.20;;;;;;5118730;27;43491;-58
2022/10/09 06:59:10;;;;;;;1.02;0.90;;;18.70;63.30;;;;;;5115591;27;44034;-58
2022/10/09 07:01:38;;;;;;;1.13;1.02;;;18.70;63.20;;;;;;5116700;27;43360;-58
2022/10/09 07:04:09;;;;;;;0.80;0.80;;;18.70;63.20;;;;;;5120384;27;44026;-57
2022/10/09 07:06:40;;;;;;;1.10;1.10;;;18.70;63.10;;;;;;5114389;27;43438;-57
2022/10/09 07:09:11;;;;;;;1.02;0.93;;;18.70;63.10;;;;;;5122913;27;43794;-57
2022/10/09 07:11:41;;;;;;;1.17;1.08;;;18.70;63.30;;;;;;5115552;27;43414;-58
2022/10/09 07:14:11;;;;;;;1.00;1.00;;;18.70;63.20;;;;;;5111480;27;44050;-58
2022/10/09 07:16:41;;;;;;;1.95;1.00;;;18.70;63.30;;;;;;5119927;27;43530;-58
2022/10/09 07:19:10;;;;;;;1.20;1.10;;;18.70;63.80;;;;;;5121814;27;43851;-57
2022/10/09 07:21:41;;;;;;;1.05;0.95;;;18.70;63.40;;;;;;5090533;27;43500;-58
2022/10/09 07:24:09;;;;;;;;;;;18.70;63.30;;;;;;5114401;27;43400;-58
2022/10/09 07:26:40;;;;;;;1.65;1.15;;;18.60;63.40;;;;;;5121366;27;43960;-58
2022/10/09 07:29:08;;;;;;;;;;;18.60;63.50;;;;;;5111506;27;44777;-58
2022/10/09 07:31:35;;;;;;;2.17;1.10;;;18.60;63.40;;;;;;5106230;27;43464;-58
2022/10/09 07:34:05;;;;;;;2.13;1.40;;;18.60;63.40;;;;;;5081008;27;43452;-58
2022/10/09 07:36:32;;;;;;;5.97;2.88;;;18.60;63.50;;;;;;5118162;27;43465;-57
2022/10/09 07:39:00;;;;;;;4.43;4.03;;;18.70;63.60;;;;;;5109687;27;43730;-58
2022/10/09 07:41:29;;;;;;;4.30;4.00;;;18.70;63.50;;;;;;5111437;27;43417;-58
2022/10/09 07:43:57;;;;;;;3.80;3.50;;;18.70;63.50;;;;;;5117196;27;43473;-58
2022/10/09 07:46:26;;;;;;;3.60;3.30;;;18.70;63.40;;;;;;5123585;27;43600;-59
2022/10/09 07:49:01;;;;;;;3.60;3.30;;;18.70;63.40;;;;;;5110281;27;44053;-58
2022/10/09 07:51:30;;;;;;;4.03;3.72;;;18.70;63.40;;;;;;5111351;27;44002;-58
2022/10/09 07:54:00;;;;;;;4.75;4.13;;;18.70;63.40;;;;;;5122017;27;43434;-58
2022/10/09 07:56:31;;;;;;;4.55;4.15;;;18.80;63.50;;;;;;5109807;27;43545;-58
2022/10/09 07:59:01;;;;;;;4.30;3.90;;;18.80;63.60;;;;;;5112894;27;44056;-57
2022/10/09 08:01:29;;;;;;;3.80;3.50;;;18.90;63.40;;;;;;5114300;27;43975;-59
2022/10/09 08:03:57;;;;;;;3.83;3.42;;;18.90;63.60;;;;;;5121370;27;43422;-57
2022/10/09 08:06:25;;;;;;;3.72;3.30;;;19.00;63.40;;;;;;5106313;27;43592;-58
2022/10/09 08:08:55;;;;;;;3.63;3.38;;;19.10;63.30;;;;;;5106919;27;43572;-58
2022/10/09 08:11:24;;;;;;;3.47;3.17;;;19.10;63.10;;;;;;5113276;27;43432;-59
2022/10/09 08:13:52;;;;;;;4.35;3.30;;;19.20;63.10;;;;;;5121925;27;43393;-57
2022/10/09 08:16:22;;;;;;;3.35;3.03;;;19.30;63.00;;;;;;5110320;27;43632;-58
2022/10/09 08:18:57;;;;;;;6.32;2.90;;;19.40;63.40;;;;;;5120656;27;44969;-58
2022/10/09 08:21:27;;;;;;;3.13;2.60;;;19.50;63.40;;;;;;5115510;27;43944;-59
2022/10/09 08:23:56;;;;;;;3.00;2.80;;;19.60;63.10;;;;;;5121465;27;43450;-58
2022/10/09 08:26:26;;;;;;;2.63;2.42;;;19.70;63.00;;;;;;5107666;27;44237;-58
2022/10/09 08:28:56;;;;;;;2.85;2.55;;;19.80;62.70;;;;;;5109924;27;44664;-59
2022/10/09 08:31:24;;;;;;;3.58;2.40;;;19.90;62.80;;;;;;5106356;27;43969;-58
2022/10/09 08:33:53;;;;;;;2.67;2.20;;;20.00;62.70;;;;;;5120560;27;43438;-58
2022/10/09 08:36:22;;;;;;;2.85;2.50;;;20.10;62.50;;;;;;5108512;27;43596;-60
2022/10/09 08:38:50;;;;;;;2.60;2.15;;;20.10;62.30;;;;;;5089722;27;44193;-60
2022/10/09 08:41:42;;;;;;;2.40;1.85;;;20.30;62.50;;;;;;5116844;27;43432;-60
2022/10/09 08:44:16;;;;;;;3.15;1.90;;;20.30;62.40;;;;;;5119649;27;43428;-59
2022/10/09 08:46:53;;;;;;;2.72;2.17;;;20.40;62.10;;;;;;5107373;27;43538;-58
2022/10/09 08:49:35;;;;;;;1.90;1.80;;;20.50;61.90;;;;;;5113709;27;44043;-58
2022/10/09 08:52:37;;;;;;;2.45;2.00;;;20.60;61.70;;;;;;5117143;27;43389;-58
2022/10/09 08:55:13;;;;;;;2.13;1.70;;;20.70;61.60;;;;;;5108102;27;43503;-58
2022/10/09 08:57:42;;;;;;;1.98;1.88;;;20.80;61.50;;;;;;5111830;27;43445;-58
2022/10/09 09:00:17;;;;;;;1.27;1.27;;;20.80;61.40;;;;;;5117065;27;45308;-58
2022/10/09 09:03:15;;;;;;;2.38;1.70;;;20.90;61.30;;;;;;5113261;27;43743;-58
2022/10/09 09:06:00;;;;;;;3.65;1.60;;;20.90;61.10;;;;;;5115592;27;43343;-59
2022/10/09 09:08:59;;;;;;;2.35;1.60;;;20.90;60.90;;;;;;5119800;27;43437;-58
2022/10/09 09:11:34;;;;;;;2.67;1.70;;;21.00;60.90;;;;;;5093719;27;44682;-58
2022/10/09 09:14:37;;;;;;;1.42;1.33;;;21.00;60.90;;;;;;5108805;27;43495;-59
2022/10/09 09:17:14;;;;;;;2.35;1.80;;;21.10;60.90;;;;;;5116470;27;43437;-58
2022/10/09 09:20:07;;;;;;;1.90;1.42;;;21.10;60.90;;;;;;5118490;27;43520;-58
2022/10/09 09:22:38;;;;;;;1.60;1.50;;;21.10;60.80;;;;;;5109205;27;43875;-58
2022/10/09 09:25:24;;;;;;;1.17;1.17;;;21.20;60.80;;;;;;5116223;27;43522;-58
2022/10/09 09:27:53;;;;;;;2.85;1.40;;;21.20;60.80;;;;;;5118291;27;43385;-58
2022/10/09 09:30:26;;;;;;;1.50;1.40;;;21.20;60.80;;;;;;5111852;27;43560;-58
2022/10/09 09:32:59;;;;;;;1.58;1.48;;;21.20;60.80;;;;;;5113114;27;43877;-58
2022/10/09 09:35:45;;;;;;;1.65;1.50;;;21.20;60.80;;;;;;5099510;27;43497;-58
2022/10/09 09:38:14;;;;;;;1.67;1.42;;;21.30;60.80;;;;;;5115960;27;43425;-58
2022/10/09 09:40:43;;;;;;;1.33;1.23;;;21.30;60.80;;;;;;5112761;27;43474;-58
2022/10/09 09:43:19;;;;;;;1.25;1.20;;;21.30;61.10;;;;;;5119442;27;44918;-58
2022/10/09 09:45:47;;;;;;;1.52;1.40;;;21.30;60.80;;;;;;5122636;27;43497;-58
2022/10/09 09:48:25;;;;;;;1.45;1.20;;;21.40;60.90;;;;;;5113886;27;43426;-58
2022/10/09 09:50:53;;;;;;;1.55;1.45;;;21.40;60.80;;;;;;5112366;27;43562;-58
2022/10/09 09:53:48;;;;;;;2.05;1.33;;;21.40;60.80;;;;;;5119536;27;44971;-58
2022/10/09 09:56:16;;;;;;;1.42;1.33;;;21.50;60.80;;;;;;5121020;27;43989;-58
2022/10/09 09:58:46;;;;;;;1.85;1.63;;;21.50;60.80;;;;;;5112788;27;43443;-58
2022/10/09 10:01:26;;;;;;;1.65;1.38;;;21.60;60.60;;;;;;5113149;27;43615;-58
2022/10/09 10:03:57;;;;;;;4.40;1.40;;;21.60;60.60;;;;;;5108804;27;44989;-57
2022/10/09 10:06:42;;;;;;;5.47;1.73;;;21.70;60.60;;;;;;5107835;27;43541;-58
2022/10/09 10:09:15;;;;;;;5.00;1.80;;;21.70;60.60;;;;;;5107630;27;43488;-58
2022/10/09 10:12:02;;;;;;;1.20;1.10;;;21.70;60.40;;;;;;5124070;27;43508;-58
2022/10/09 10:14:31;;;;;;;2.05;1.30;;;21.80;60.30;;;;;;5094766;27;44180;-58
2022/10/09 10:17:00;;;;;;;1.63;1.13;;;21.80;60.40;;;;;;5119643;27;43710;-58
2022/10/09 10:19:37;;;;;;;2.42;1.20;;;21.90;60.50;;;;;;5118429;27;43403;-58
2022/10/09 10:22:21;;;;;;;1.50;1.15;;;21.90;60.30;;;;;;5116720;27;43403;-59
2022/10/09 10:24:52;;;;;;;1.33;1.10;;;21.90;60.40;;;;;;5112624;27;43757;-59
2022/10/09 10:27:34;;;;;;;3.50;1.27;;;22.00;60.30;;;;;;5122051;27;43572;-59
2022/10/09 10:30:09;;;;;;;1.52;1.10;;;22.00;60.30;;;;;;5100456;27;43458;-59
2022/10/09 10:32:50;;;;;;;2.55;1.10;;;22.10;60.30;;;;;;5117903;27;43995;-59
2022/10/09 10:35:22;;;;;;;2.65;1.50;;;22.10;60.30;;;;;;5118315;27;44041;-59
2022/10/09 10:38:16;;;;;;;1.13;1.02;;;22.10;60.20;;;;;;5117396;27;43512;-58
2022/10/09 10:40:51;;;;;;;1.92;0.98;;;22.20;60.20;;;;;;5116661;27;43465;-59
2022/10/09 10:43:38;;;;;;;1.20;1.02;;;22.10;60.20;;;;;;5117356;27;43456;-58
2022/10/09 10:46:19;;;;;;;2.00;1.00;;;22.20;60.20;;;;;;5091614;27;44106;-59
2022/10/09 10:48:48;;;;;;;1.63;1.20;;;22.20;60.20;;;;;;5093819;27;43520;-58
2022/10/09 10:51:32;;;;;;;0.95;0.90;;;22.20;60.10;;;;;;5096950;27;43432;-59
2022/10/09 10:54:31;;;;;;;1.73;1.10;;;22.20;60.10;;;;;;5111907;27;43483;-59
2022/10/09 10:57:14;;;;;;;2.15;1.00;;;22.20;60.10;;;;;;5095567;27;43776;-58
2022/10/09 10:59:59;;;;;;;0.98;0.80;;;22.30;60.10;;;;;;5092646;27;43635;-59
2022/10/09 11:02:55;;;;;;;1.58;1.08;;;22.30;60.10;;;;;;5095628;27;43531;-59
2022/10/09 11:05:25;;;;;;;1.10;0.90;;;22.30;60.10;;;;;;5093916;27;43624;-58
2022/10/09 11:08:18;;;;;;;1.23;1.05;;;22.30;60.10;;;;;;5095393;27;44953;-58
2022/10/09 11:11:12;;;;;;;0.80;0.80;;;22.30;60.00;;;;;;5091484;27;44603;-59
2022/10/09 11:13:50;;;;;;;1.80;1.17;;;22.30;60.00;;;;;;5088984;27;43521;-58
2022/10/09 11:16:37;;;;;;;1.20;1.00;;;22.30;60.10;;;;;;5096703;27;43434;-58
2022/10/09 11:19:31;;;;;;;1.67;1.17;;;22.30;60.10;;;;;;5085233;27;43937;-58
2022/10/09 11:22:30;;;;;;;0.88;0.88;;;22.40;60.20;;;;;;5084773;27;43372;-59
2022/10/09 11:25:39;;;;;;;1.65;1.00;;;22.30;60.20;;;;;;5100588;27;43451;-59
2022/10/09 11:28:11;;;;;;;1.63;0.80;;;22.40;60.10;;;;;;5086403;27;43483;-59
2022/10/09 11:31:03;;;;;;;2.00;1.20;;;22.40;60.10;;;;;;5101117;27;44205;-59
2022/10/09 11:33:45;;;;;;;1.17;0.75;;;22.40;60.10;;;;;;5083697;27;43536;-59
2022/10/09 11:36:20;;;;;;;1.75;1.20;;;22.50;60.10;;;;;;5093824;27;43384;-59
2022/10/09 11:38:57;;;;;;;0.88;0.85;;;22.50;60.10;;;;;;5101485;27;43404;-58
2022/10/09 11:41:26;;;;;;;1.50;1.02;;;22.50;60.10;;;;;;5097917;27;43787;-58
2022/10/09 11:44:30;;;;;;;1.65;0.80;;;22.50;60.10;;;;;;5090318;27;44152;-58
2022/10/09 11:47:03;;;;;;;1.88;0.80;;;22.50;60.10;;;;;;5119069;27;44086;-58
2022/10/09 11:49:54;;;;;;;2.42;0.90;;;22.60;60.10;;;;;;5113445;27;43450;-58
2022/10/09 11:52:47;;;;;;;1.13;1.02;;;22.60;60.10;;;;;;5092546;27;43832;-58
2022/10/09 11:55:29;;;;;;;1.15;1.05;;;22.50;60.00;;;;;;5119512;27;43550;-58
2022/10/09 11:58:14;;;;;;;1.27;0.80;;;22.60;60.10;;;;;;5118367;27;43486;-58
2022/10/09 12:00:42;;;;;;;1.52;0.88;;;22.50;60.00;;;;;;5089634;27;43530;-59
2022/10/09 12:03:32;;;;;;;0.85;0.70;;;22.60;60.10;;;;;;5115756;27;43820;-58
2022/10/09 12:06:10;;;;;;;1.33;0.80;;;22.50;60.00;;;;;;5120897;27;43708;-59
2022/10/09 12:09:02;;;;;;;1.17;0.90;;;22.60;60.10;;;;;;5109134;27;43460;-58
2022/10/09 12:11:31;;;;;;;1.23;1.00;;;22.60;60.30;;;;;;5102429;27;43551;-58
2022/10/09 12:14:02;;;;;;;1.90;0.90;;;22.60;60.30;;;;;;5119700;27;44031;-58
2022/10/09 12:16:43;;;;;;;0.85;0.60;;;22.60;60.30;;;;;;5117057;27;43426;-58
2022/10/09 12:19:17;;;;;;;1.55;0.93;;;22.50;60.20;;;;;;5100028;27;43422;-58
2022/10/09 12:21:54;;;;;;;1.02;0.70;;;22.50;60.30;;;;;;5111095;27;43551;-59
2022/10/09 12:24:26;;;;;;;2.15;0.93;;;22.60;60.30;;;;;;5119847;27;43798;-58
2022/10/09 12:26:58;;;;;;;1.33;0.80;;;22.50;60.30;;;;;;5113719;27;43584;-58
2022/10/09 12:29:43;;;;;;;1.33;0.80;;;22.60;60.30;;;;;;5116987;27;43458;-58
2022/10/09 12:32:28;;;;;;;1.42;1.02;;;22.60;60.30;;;;;;5117929;27;43426;-58
2022/10/09 12:34:56;;;;;;;1.42;0.80;;;22.60;60.30;;;;;;5112059;27;43841;-59
2022/10/09 12:37:35;;;;;;;0.75;0.63;;;22.60;60.30;;;;;;5112017;27;43663;-58
2022/10/09 12:40:12;;;;;;;1.75;0.73;;;22.60;60.30;;;;;;5111934;27;43384;-59
2022/10/09 12:42:42;;;;;;;1.08;0.90;;;22.60;60.30;;;;;;5110640;27;43499;-59
2022/10/09 12:45:28;;;;;;;1.30;0.80;;;22.70;60.40;;;;;;5107725;27;43800;-58
2022/10/09 12:48:09;;;;;;;0.68;0.60;;;22.70;60.30;;;;;;5095826;27;43636;-58
2022/10/09 12:50:36;;;;;;;1.27;0.70;;;22.70;60.30;;;;;;5122859;27;43575;-59
2022/10/09 12:53:17;;;;;;;0.85;0.60;;;22.70;60.30;;;;;;5121255;27;43500;-58
2022/10/09 12:55:51;;;;;;;1.15;0.73;;;22.70;60.30;;;;;;5112883;27;43876;-58
2022/10/09 12:58:25;;;;;;;0.85;0.70;;;22.70;60.30;;;;;;5119409;27;43440;-58
2022/10/09 13:00:59;;;;;;;1.08;0.70;;;22.70;60.40;;;;;;5099490;27;43394;-58
2022/10/09 13:03:37;;;;;;;1.42;0.80;;;22.70;60.40;;;;;;5119958;27;43553;-59
2022/10/09 13:06:12;;;;;;;0.82;0.75;;;22.70;60.40;;;;;;5116004;27;43547;-58
2022/10/09 13:08:40;;;;;;;0.85;0.57;;;22.70;60.40;;;;;;5114845;27;43536;-58
2022/10/09 13:11:28;;;;;;;0.70;0.65;;;22.70;60.50;;;;;;5119509;27;43435;-58
2022/10/09 13:13:56;;;;;;;1.17;0.70;;;22.70;60.40;;;;;;5108125;27;43494;-58
2022/10/09 13:16:23;;;;;;;1.08;0.63;;;22.70;60.40;;;;;;5120298;27;44984;-58
2022/10/09 13:18:59;;;;;;;1.05;0.65;;;22.70;60.40;;;;;;5124201;27;43439;-58